Time;durP1;ratioP1;P1;durP2;ratioP2;P2;SDS_P1;SDS_P2;PMS_P1;PMS_P2;Temp;Humidity;BMP_temperature;BMP_pressure;BME280_temperature;BME280_humidity;BME280_pressure;Samples;Min_cycle;Max_cycle;Signal;HPM_P1;HPM_P2
2022/03/16 00:01:04;;;;;;;5.80;2.80;;;;;;;-3.08;63.05;100840.41;25116;1315;3028801;-70
2022/03/16 00:03:35;;;;;;;5.80;3.00;;;;;;;-3.12;62.94;100840.00;25156;1315;3050710;-68
2022/03/16 00:06:05;;;;;;;4.60;2.90;;;;;;;-3.14;63.27;100832.07;25097;1315;3026768;-72
2022/03/16 00:08:35;;;;;;;6.20;2.70;;;;;;;-3.14;63.20;100834.30;25178;1315;3026495;-69
2022/03/16 00:11:04;;;;;;;5.60;2.60;;;;;;;-3.14;62.94;100832.43;25152;1315;3028282;-71
2022/03/16 00:13:34;;;;;;;5.10;2.70;;;;;;;-3.11;62.52;100832.15;25113;1315;3027636;-70
2022/03/16 00:16:03;;;;;;;6.30;3.20;;;;;;;-3.13;63.12;100829.17;25146;1313;3028333;-70
2022/03/16 00:18:33;;;;;;;4.80;3.10;;;;;;;-3.14;62.94;100826.92;25141;1315;3026466;-70
2022/03/16 00:21:02;;;;;;;5.10;2.50;;;;;;;-3.14;62.56;100824.52;25160;1315;3027661;-72
2022/03/16 00:23:33;;;;;;;5.30;2.80;;;;;;;-3.10;62.29;100824.60;25119;1315;3056331;-71
2022/03/16 00:26:03;;;;;;;5.60;2.80;;;;;;;-3.08;61.93;100822.57;25137;1315;3027324;-72
2022/03/16 00:28:33;;;;;;;4.20;2.80;;;;;;;-3.12;62.65;100821.64;25113;1314;3028553;-71
2022/03/16 00:31:03;;;;;;;5.30;2.70;;;;;;;-3.15;62.71;100819.02;25161;1315;3026542;-70
2022/03/16 00:33:32;;;;;;;4.80;2.30;;;;;;;-3.18;63.11;100818.46;25188;1315;3049499;-69
2022/03/16 00:36:01;;;;;;;4.10;2.50;;;;;;;-3.23;63.12;100818.02;25189;1315;3029390;-70
2022/03/16 00:38:31;;;;;;;5.20;2.90;;;;;;;-3.25;63.31;100815.77;25189;1315;3058413;-69
2022/03/16 00:41:03;;;;;;;4.60;2.60;;;;;;;-3.31;63.82;100813.95;25199;1315;3027489;-68
2022/03/16 00:43:33;;;;;;;5.30;3.10;;;;;;;-3.35;63.65;100812.85;25192;1315;3026304;-70
2022/03/16 00:46:02;;;;;;;9.20;2.90;;;;;;;-3.38;63.90;100811.44;25149;1312;3026439;-70
2022/03/16 00:48:31;;;;;;;8.30;3.80;;;;;;;-3.36;63.92;100811.30;25115;1315;3051575;-72
2022/03/16 00:51:01;;;;;;;6.50;3.80;;;;;;;-3.40;64.34;100818.93;25109;1315;3026481;-74
2022/03/16 00:53:33;;;;;;;6.30;3.10;;;;;;;-3.42;64.59;100819.75;25148;1314;3026595;-70
2022/03/16 00:56:03;;;;;;;6.00;3.50;;;;;;;-3.43;64.67;100821.79;25159;1315;3048052;-72
2022/03/16 00:58:32;;;;;;;4.60;2.90;;;;;;;-3.42;64.30;100819.60;25141;1313;3026535;-71
2022/03/16 01:01:05;;;;;;;5.00;3.20;;;;;;;-3.43;64.22;100822.65;25174;1315;3027332;-70
2022/03/16 01:03:34;;;;;;;6.30;3.00;;;;;;;-3.47;63.99;100821.55;25146;1315;3027016;-70
2022/03/16 01:06:04;;;;;;;6.60;3.10;;;;;;;-3.47;64.34;100825.31;25127;1315;3026385;-71
2022/03/16 01:08:33;;;;;;;5.70;3.20;;;;;;;-3.55;64.79;100824.48;25124;1315;3026412;-69
2022/03/16 01:11:02;;;;;;;4.30;2.80;;;;;;;-3.57;64.93;100822.23;25125;1315;3070141;-71
2022/03/16 01:13:31;;;;;;;5.60;3.30;;;;;;;-3.60;64.73;100820.63;25080;1315;3026502;-69
2022/03/16 01:16:20;;;;;;;7.60;3.40;;;;;;;-3.63;64.80;100826.55;25151;1315;3053006;-69
2022/03/16 01:18:52;;;;;;;5.80;3.50;;;;;;;-3.66;65.04;100822.05;25108;1315;3026498;-71
2022/03/16 01:21:22;;;;;;;5.50;3.00;;;;;;;-3.70;65.10;100820.77;25154;1315;3026717;-67
2022/03/16 01:23:51;;;;;;;7.80;3.30;;;;;;;-3.72;65.41;100818.86;25106;1315;3026076;-66
2022/03/16 01:26:21;;;;;;;5.50;2.80;;;;;;;-3.70;65.07;100820.27;25142;1315;3026551;-69
2022/03/16 01:28:49;;;;;;;8.40;3.70;;;;;;;-3.70;65.11;100820.09;25128;1315;3026140;-69
2022/03/16 01:31:19;;;;;;;4.90;3.10;;;;;;;-3.71;65.03;100814.41;25130;1315;3054428;-69
2022/03/16 01:33:48;;;;;;;10.10;3.20;;;;;;;-3.72;65.26;100811.67;25161;1315;3026723;-72
2022/03/16 01:36:18;;;;;;;5.50;3.60;;;;;;;-3.73;65.31;100809.60;25119;1315;3026355;-69
2022/03/16 01:38:48;;;;;;;7.80;3.50;;;;;;;-3.75;65.71;100805.10;25117;1315;3027093;-69
2022/03/16 01:41:18;;;;;;;5.80;3.30;;;;;;;-3.76;65.54;100805.09;25159;1315;3026642;-69
2022/03/16 01:43:53;;;;;;;6.80;3.50;;;;;;;-3.80;65.70;100806.20;25133;1315;3026565;-71
2022/03/16 01:46:23;;;;;;;6.60;3.60;;;;;;;-3.82;65.99;100809.41;25119;1315;3069369;-71
2022/03/16 01:48:53;;;;;;;6.80;3.30;;;;;;;-3.81;65.73;100812.18;25115;1315;3026427;-70
2022/03/16 01:51:23;;;;;;;7.50;3.50;;;;;;;-3.84;65.90;100812.11;25136;1315;3026262;-70
2022/03/16 01:53:52;;;;;;;6.30;3.80;;;;;;;-3.86;65.91;100810.55;25181;1315;3026613;-69
2022/03/16 01:56:21;;;;;;;8.50;4.20;;;;;;;-3.86;66.27;100815.16;25105;1315;3026246;-70
2022/03/16 01:58:50;;;;;;;8.50;4.40;;;;;;;-3.85;66.12;100815.87;25152;1315;3054265;-68
2022/03/16 02:01:19;;;;;;;11.60;4.90;;;;;;;-3.85;66.34;100813.11;25120;1315;3026552;-71
2022/03/16 02:03:49;;;;;;;9.20;5.30;;;;;;;-3.84;66.28;100812.63;25095;1315;3050357;-71
2022/03/16 02:06:25;;;;;;;9.50;4.90;;;;;;;-3.82;66.03;100809.08;25112;1315;3053255;-68
2022/03/16 02:08:55;;;;;;;9.90;5.30;;;;;;;-3.82;65.97;100804.63;25117;1315;3027110;-72
2022/03/16 02:11:25;;;;;;;9.50;5.40;;;;;;;-3.83;65.84;100808.71;25115;1315;3026414;-70
2022/03/16 02:13:54;;;;;;;8.70;5.30;;;;;;;-3.81;65.80;100808.59;25101;1315;3028858;-71
2022/03/16 02:16:25;;;;;;;10.00;5.40;;;;;;;-3.78;65.36;100809.50;25117;1315;3054566;-70
2022/03/16 02:18:54;;;;;;;9.50;6.30;;;;;;;-3.77;64.85;100814.48;25157;1315;3028603;-68
2022/03/16 02:21:36;;;;;;;12.40;6.60;;;;;;;-3.80;65.79;100813.22;25137;1315;3052085;-71
2022/03/16 02:24:06;;;;;;;14.50;6.10;;;;;;;-3.80;65.32;100811.17;25138;1315;3026475;-68
2022/03/16 02:26:36;;;;;;;14.60;6.10;;;;;;;-3.80;65.36;100815.11;25097;1313;3027964;-69
2022/03/16 02:29:06;;;;;;;8.80;5.90;;;;;;;-3.86;65.95;100822.36;25136;1313;3027431;-67
2022/03/16 02:31:36;;;;;;;9.70;6.20;;;;;;;-3.89;65.88;100826.06;25118;1313;3026563;-70
2022/03/16 02:34:10;;;;;;;10.50;5.80;;;;;;;-3.94;65.97;100824.25;25113;1315;3052532;-69
2022/03/16 02:36:39;;;;;;;9.20;5.80;;;;;;;-3.98;66.21;100821.95;25089;1313;3026411;-70
2022/03/16 02:39:08;;;;;;;11.20;5.90;;;;;;;-3.99;66.03;100828.08;25151;1315;3026587;-69
2022/03/16 02:41:47;;;;;;;11.30;6.40;;;;;;;-4.00;66.13;100825.48;25045;1313;3051180;-68
2022/03/16 02:44:16;;;;;;;9.50;5.60;;;;;;;-4.07;66.28;100824.84;25182;1313;3053715;-70
2022/03/16 02:46:47;;;;;;;11.10;6.60;;;;;;;-4.08;65.97;100827.05;25188;1313;3026345;-70
2022/03/16 02:49:17;;;;;;;9.40;5.80;;;;;;;-4.10;66.11;100822.38;25118;1313;3026936;-71
2022/03/16 02:51:46;;;;;;;11.90;6.40;;;;;;;-4.09;66.21;100820.17;25153;1313;3027968;-66
2022/03/16 02:54:15;;;;;;;11.00;5.80;;;;;;;-4.13;66.46;100818.91;25112;1313;3027990;-65
2022/03/16 02:56:47;;;;;;;8.20;5.30;;;;;;;-4.16;66.61;100822.59;25102;1315;3026519;-66
2022/03/16 02:59:17;;;;;;;8.10;5.30;;;;;;;-4.22;66.82;100818.70;25164;1313;3027709;-72
2022/03/16 03:01:46;;;;;;;11.20;5.50;;;;;;;-4.20;66.36;100821.30;25115;1315;3026332;-69
2022/03/16 03:04:20;;;;;;;7.20;4.50;;;;;;;-4.21;66.73;100817.02;25181;1313;3055067;-67
2022/03/16 03:06:49;;;;;;;6.50;4.60;;;;;;;-4.19;66.18;100821.85;25082;1315;3026107;-68
2022/03/16 03:09:18;;;;;;;7.70;4.30;;;;;;;-4.21;66.13;100820.80;25138;1313;3051031;-64
2022/03/16 03:11:48;;;;;;;9.20;4.70;;;;;;;-4.19;66.06;100820.48;25109;1315;3026228;-68
2022/03/16 03:14:17;;;;;;;8.70;4.80;;;;;;;-4.20;66.17;100815.34;25150;1313;3026420;-64
2022/03/16 03:16:46;;;;;;;8.80;4.90;;;;;;;-4.19;66.14;100816.89;25149;1315;3049222;-66
2022/03/16 03:19:15;;;;;;;7.40;4.00;;;;;;;-4.17;65.85;100815.21;25103;1313;3027626;-68
2022/03/16 03:21:44;;;;;;;6.70;3.80;;;;;;;-4.18;65.79;100815.36;25134;1313;3026648;-69
2022/03/16 03:24:15;;;;;;;6.10;3.70;;;;;;;-4.22;66.13;100816.66;25100;1313;3053065;-70
2022/03/16 03:26:44;;;;;;;5.80;3.80;;;;;;;-4.15;65.62;100815.08;25072;1313;3029429;-63
2022/03/16 03:29:14;;;;;;;6.60;3.80;;;;;;;-4.15;65.34;100807.73;25053;1313;3027506;-67
2022/03/16 03:31:44;;;;;;;5.90;3.30;;;;;;;-4.18;65.03;100809.73;25051;1313;3026692;-69
2022/03/16 03:34:32;;;;;;;8.20;3.60;;;;;;;-4.20;65.75;100813.45;25161;1313;3049281;-70
2022/03/16 03:37:01;;;;;;;6.00;3.80;;;;;;;-4.22;65.34;100817.17;25064;1313;3026216;-66
2022/03/16 03:39:32;;;;;;;9.20;3.80;;;;;;;-4.26;65.63;100816.58;25120;1313;3071361;-63
2022/03/16 03:42:07;;;;;;;9.40;4.10;;;;;;;-4.33;65.92;100817.80;25002;1315;3049777;-64
2022/03/16 03:44:40;;;;;;;4.50;3.00;;;;;;;-4.31;66.04;100818.35;25143;1313;3026658;-67
2022/03/16 03:47:10;;;;;;;5.80;3.30;;;;;;;-4.29;65.60;100813.95;25076;1313;3026551;-65
2022/03/16 03:49:42;;;;;;;5.30;3.30;;;;;;;-4.33;65.97;100813.34;25116;1313;3027049;-66
2022/03/16 03:52:12;;;;;;;5.20;3.20;;;;;;;-4.30;65.61;100814.09;25065;1313;3026387;-65
2022/03/16 03:54:40;;;;;;;5.10;3.20;;;;;;;-4.27;65.43;100816.38;25128;1315;3026735;-67
2022/03/16 03:57:09;;;;;;;4.20;2.90;;;;;;;-4.31;65.72;100817.67;25142;1313;3055369;-66
2022/03/16 03:59:36;;;;;;;4.20;2.90;;;;;;;-4.32;65.33;100821.56;23526;1315;8949837;-68
2022/03/16 04:02:05;;;;;;;7.80;5.10;;;;;;;-4.14;64.79;100820.24;25110;1312;3071057;-68
2022/03/16 04:04:34;;;;;;;6.40;3.40;;;;;;;-3.85;64.17;100817.73;25217;1312;3026547;-66
2022/03/16 04:07:04;;;;;;;6.40;3.80;;;;;;;-4.01;64.46;100821.71;25085;1312;3051737;-69
2022/03/16 04:09:33;;;;;;;6.00;3.30;;;;;;;-4.03;64.95;100824.41;25120;1312;3027298;-68
2022/03/16 04:12:03;;;;;;;5.90;3.10;;;;;;;-4.11;65.00;100826.30;25111;1312;3026630;-69
2022/03/16 04:14:33;;;;;;;6.50;3.60;;;;;;;-4.19;65.32;100831.77;25151;1312;3053185;-66
2022/03/16 04:17:02;;;;;;;5.90;3.40;;;;;;;-4.21;65.25;100826.41;25134;1312;3026733;-66
2022/03/16 04:19:32;;;;;;;6.00;3.40;;;;;;;-4.18;65.25;100823.91;25165;1312;3053947;-66
2022/03/16 04:22:02;;;;;;;3.80;3.00;;;;;;;-4.18;65.13;100828.19;25180;1312;3027215;-70
2022/03/16 04:24:32;;;;;;;5.40;3.50;;;;;;;-4.19;65.28;100831.09;25101;1312;3026822;-69
2022/03/16 04:27:01;;;;;;;6.60;3.50;;;;;;;-4.21;65.31;100833.77;25144;1312;3026614;-66
2022/03/16 04:29:30;;;;;;;4.90;3.20;;;;;;;-4.17;65.23;100834.91;25062;1312;3052893;-69
2022/03/16 04:31:59;;;;;;;5.10;3.80;;;;;;;-4.10;64.60;100836.94;25128;1312;3026133;-69
2022/03/16 04:34:28;;;;;;;7.90;3.70;;;;;;;-4.09;64.95;100838.84;25192;1312;3052235;-67
2022/03/16 04:36:58;;;;;;;3.70;2.90;;;;;;;-4.07;64.41;100840.09;25157;1312;3026504;-71
2022/03/16 04:39:27;;;;;;;4.90;3.00;;;;;;;-4.04;64.63;100843.55;25126;1312;3026238;-67
2022/03/16 04:41:56;;;;;;;6.60;3.40;;;;;;;-3.99;64.41;100843.14;25182;1312;3052595;-69
2022/03/16 04:44:25;;;;;;;5.80;3.50;;;;;;;-3.99;64.66;100840.73;25136;1312;3029633;-68
2022/03/16 04:46:54;;;;;;;6.10;3.70;;;;;;;-3.97;64.26;100840.10;25136;1312;3052271;-65
2022/03/16 04:49:24;;;;;;;7.00;3.50;;;;;;;-3.98;64.11;100837.70;25091;1312;3026589;-67
2022/03/16 04:51:53;;;;;;;7.30;3.40;;;;;;;-3.91;64.24;100838.69;25124;1312;3026543;-72
2022/03/16 04:54:22;;;;;;;5.50;3.80;;;;;;;-3.90;64.37;100838.36;25175;1312;3026404;-71
2022/03/16 04:56:52;;;;;;;9.30;3.80;;;;;;;-3.93;64.30;100839.86;25146;1312;3055426;-66
2022/03/16 04:59:20;;;;;;;6.60;3.90;;;;;;;-3.91;63.93;100839.89;25199;1312;3026860;-66
2022/03/16 05:01:50;;;;;;;6.50;4.20;;;;;;;-3.86;64.27;100843.73;25180;1312;3052061;-67
2022/03/16 05:04:20;;;;;;;6.40;3.80;;;;;;;-3.78;63.65;100845.45;25134;1312;3026245;-64
2022/03/16 05:06:50;;;;;;;7.60;4.20;;;;;;;-3.87;63.89;100844.27;25123;1312;3026502;-69
2022/03/16 05:09:20;;;;;;;7.10;3.80;;;;;;;-3.86;64.03;100849.05;25151;1312;3026628;-66
2022/03/16 05:11:53;;;;;;;6.40;4.20;;;;;;;-3.75;63.99;100845.87;25151;1312;3051067;-69
2022/03/16 05:14:22;;;;;;;7.50;4.50;;;;;;;-3.69;63.49;100849.21;25137;1312;3026483;-68
2022/03/16 05:16:53;;;;;;;8.60;4.50;;;;;;;-3.74;63.57;100853.26;25107;1311;3070784;-71
2022/03/16 05:19:25;;;;;;;13.50;5.80;;;;;;;-3.67;63.60;100848.92;25170;1311;3026389;-70
2022/03/16 05:21:54;;;;;;;15.20;6.30;;;;;;;-3.60;62.95;100847.53;25207;1312;3027412;-69
2022/03/16 05:24:26;;;;;;;11.00;4.70;;;;;;;-3.45;62.90;100849.69;25153;1312;3026844;-70
2022/03/16 05:26:55;;;;;;;11.50;5.30;;;;;;;-3.43;62.77;100851.61;25146;1312;3026451;-71
2022/03/16 05:29:24;;;;;;;9.60;4.80;;;;;;;-3.34;62.47;100851.61;25105;1312;3026623;-69
2022/03/16 05:31:54;;;;;;;9.70;4.60;;;;;;;-3.40;62.30;100854.06;25121;1312;3054770;-69
2022/03/16 05:34:28;;;;;;;8.30;5.10;;;;;;;-3.38;62.75;100856.15;25163;1312;3059110;-66
2022/03/16 05:36:57;;;;;;;7.40;4.00;;;;;;;-3.28;62.43;100855.48;25126;1312;3026343;-70
2022/03/16 05:39:26;;;;;;;7.80;4.30;;;;;;;-3.18;61.92;100848.81;25184;1312;3055446;-67
2022/03/16 05:41:56;;;;;;;8.20;4.60;;;;;;;-3.09;61.64;100851.70;25160;1312;3028230;-70
2022/03/16 05:44:26;;;;;;;9.20;5.50;;;;;;;-3.01;61.54;100854.05;25124;1312;3054939;-70
2022/03/16 05:46:57;;;;;;;8.70;4.40;;;;;;;-2.91;61.39;100853.55;25125;1312;3026101;-69
2022/03/16 05:49:28;;;;;;;8.60;4.60;;;;;;;-2.84;61.10;100852.10;25216;1312;3027286;-70
2022/03/16 05:51:57;;;;;;;8.40;4.70;;;;;;;-2.79;61.07;100857.52;25103;1312;3026512;-72
2022/03/16 05:54:26;;;;;;;8.30;4.80;;;;;;;-2.67;60.83;100858.21;25158;1311;3026371;-67
2022/03/16 05:56:55;;;;;;;10.50;4.30;;;;;;;-2.64;60.28;100858.27;25098;1312;3058687;-65
2022/03/16 05:59:25;;;;;;;11.20;4.70;;;;;;;-2.63;60.47;100857.09;25166;1312;3027026;-64
2022/03/16 06:01:55;;;;;;;10.50;4.60;;;;;;;-2.59;60.44;100855.08;25125;1312;3049821;-66
2022/03/16 06:04:24;;;;;;;9.40;4.40;;;;;;;-2.62;60.12;100854.70;25145;1312;3029119;-67
2022/03/16 06:06:53;;;;;;;9.10;4.60;;;;;;;-2.60;60.27;100852.48;25129;1312;3054172;-67
2022/03/16 06:09:22;;;;;;;8.60;4.40;;;;;;;-2.53;60.28;100851.05;25217;1312;3027031;-67
2022/03/16 06:11:52;;;;;;;9.20;4.50;;;;;;;-2.37;60.20;100854.05;25166;1311;3048663;-68
2022/03/16 06:14:21;;;;;;;11.60;4.60;;;;;;;-2.31;59.74;100857.04;25126;1312;3026451;-67
2022/03/16 06:17:09;;;;;;;7.70;4.70;;;;;;;-2.28;59.63;100854.16;25109;1312;3071320;-67
2022/03/16 06:19:38;;;;;;;6.30;3.70;;;;;;;-2.24;59.28;100853.36;25170;1312;3026597;-68
2022/03/16 06:22:08;;;;;;;10.90;3.90;;;;;;;-2.23;58.90;100856.65;25162;1312;3026295;-68
2022/03/16 06:24:38;;;;;;;7.60;3.50;;;;;;;-2.10;58.95;100856.64;25146;1312;3027606;-69
2022/03/16 06:27:07;;;;;;;6.10;3.70;;;;;;;-1.96;58.30;100857.17;25127;1311;3026630;-69
2022/03/16 06:29:36;;;;;;;8.00;3.20;;;;;;;-1.89;57.82;100853.47;25141;1312;3028851;-66
2022/03/16 06:32:06;;;;;;;5.50;3.30;;;;;;;-1.85;57.69;100858.85;25139;1312;3026616;-70
2022/03/16 06:34:35;;;;;;;9.30;2.80;;;;;;;-1.75;57.55;100846.25;25129;1312;3058450;-68
2022/03/16 06:37:04;;;;;;;8.30;3.40;;;;;;;-1.72;57.17;100851.11;25169;1312;3027012;-71
2022/03/16 06:39:34;;;;;;;8.30;3.20;;;;;;;-1.67;56.94;100850.82;25136;1312;3054049;-71
2022/03/16 06:42:05;;;;;;;6.40;3.00;;;;;;;-1.50;57.46;100852.56;25193;1312;3026498;-71
2022/03/16 06:44:35;;;;;;;4.90;2.90;;;;;;;-1.37;57.00;100855.45;25190;1312;3026620;-71
2022/03/16 06:47:05;;;;;;;8.80;3.30;;;;;;;-1.31;56.44;100854.64;25200;1312;3027187;-69
2022/03/16 06:49:35;;;;;;;5.60;3.20;;;;;;;-1.28;56.22;100857.25;25142;1312;3030049;-72
2022/03/16 06:52:04;;;;;;;9.70;4.40;;;;;;;-1.29;56.29;100863.61;25133;1312;3026908;-70
2022/03/16 06:54:34;;;;;;;7.00;3.20;;;;;;;-1.22;56.53;100857.14;25159;1312;3028103;-69
2022/03/16 06:57:04;;;;;;;6.50;3.30;;;;;;;-1.07;56.03;100859.86;25135;1311;3028539;-67
2022/03/16 06:59:33;;;;;;;6.90;3.40;;;;;;;-0.96;55.45;100860.64;25183;1312;3067563;-69
2022/03/16 07:02:02;;;;;;;7.90;3.20;;;;;;;-0.90;55.18;100861.91;25181;1312;3026685;-74
2022/03/16 07:04:31;;;;;;;8.20;3.70;;;;;;;-0.88;54.57;100862.27;25145;1312;3051091;-71
2022/03/16 07:07:00;;;;;;;7.70;3.90;;;;;;;-0.83;54.60;100860.77;25161;1312;3028352;-70
2022/03/16 07:09:32;;;;;;;8.10;3.80;;;;;;;-0.72;54.77;100862.92;25178;1312;3054747;-70
2022/03/16 07:12:01;;;;;;;7.30;3.50;;;;;;;-0.61;54.53;100866.27;25183;1312;3027561;-73
2022/03/16 07:14:31;;;;;;;7.10;3.60;;;;;;;-0.57;54.15;100868.36;25169;1312;3026302;-72
2022/03/16 07:17:03;;;;;;;6.00;3.00;;;;;;;-0.50;53.98;100866.88;25178;1312;3026492;-70
2022/03/16 07:19:33;;;;;;;7.10;2.90;;;;;;;-0.39;52.80;100860.23;25182;1312;3026875;-70
2022/03/16 07:22:02;;;;;;;9.00;3.30;;;;;;;-0.29;52.34;100859.60;25183;1312;3029609;-68
2022/03/16 07:24:31;;;;;;;6.70;3.50;;;;;;;-0.24;51.68;100859.46;25119;1312;3047079;-69
2022/03/16 07:27:03;;;;;;;6.70;3.80;;;;;;;-0.18;52.21;100860.36;25188;1311;3026952;-68
2022/03/16 07:29:33;;;;;;;6.80;3.30;;;;;;;-0.18;51.91;100860.19;25129;1312;3068878;-70
2022/03/16 07:32:03;;;;;;;7.00;3.80;;;;;;;-0.10;51.92;100858.67;25190;1312;3026365;-68
2022/03/16 07:34:32;;;;;;;5.90;3.60;;;;;;;0.08;50.72;100858.26;25194;1312;3026832;-71
2022/03/16 07:37:02;;;;;;;7.00;3.50;;;;;;;0.17;50.12;100851.05;25171;1312;3026429;-74
2022/03/16 07:39:31;;;;;;;7.70;3.50;;;;;;;0.14;50.41;100854.48;25185;1312;3026447;-68
2022/03/16 07:42:01;;;;;;;15.20;3.80;;;;;;;0.08;49.93;100853.43;25201;1312;3051749;-73
2022/03/16 07:44:31;;;;;;;8.20;3.50;;;;;;;0.22;49.98;100849.70;25182;1312;3027178;-69
2022/03/16 07:47:02;;;;;;;8.80;3.80;;;;;;;0.32;50.25;100852.66;25113;1312;3028845;-70
2022/03/16 07:49:31;;;;;;;9.60;3.20;;;;;;;0.47;49.44;100852.37;25128;1312;3052175;-70
2022/03/16 07:52:01;;;;;;;5.30;2.90;;;;;;;0.59;48.33;100847.57;25151;1312;3026941;-70
2022/03/16 07:54:30;;;;;;;8.00;3.00;;;;;;;0.68;47.55;100841.22;25168;1312;3027125;-71
2022/03/16 07:57:00;;;;;;;4.80;2.30;;;;;;;0.73;47.97;100846.06;25132;1312;3026449;-69
2022/03/16 07:59:29;;;;;;;6.10;2.70;;;;;;;0.91;46.48;100845.39;25142;1312;3051373;-68
2022/03/16 08:01:58;;;;;;;6.60;2.90;;;;;;;0.94;46.42;100839.87;25167;1312;3028775;-70
2022/03/16 08:04:28;;;;;;;3.30;2.00;;;;;;;0.88;46.06;100837.11;25123;1312;3026381;-71
2022/03/16 08:06:57;;;;;;;6.10;2.00;;;;;;;1.07;44.96;100832.80;25127;1312;3054293;-72
2022/03/16 08:09:27;;;;;;;4.80;2.40;;;;;;;1.06;43.65;100834.34;25130;1312;3026871;-71
2022/03/16 08:11:57;;;;;;;7.90;2.60;;;;;;;1.11;44.15;100832.63;25157;1312;3026702;-71
2022/03/16 08:14:27;;;;;;;7.40;2.70;;;;;;;1.06;44.65;100833.32;25177;1312;3026517;-71
2022/03/16 08:17:00;;;;;;;5.70;3.00;;;;;;;1.11;44.48;100829.70;25178;1312;3026364;-70
2022/03/16 08:19:30;;;;;;;7.70;2.30;;;;;;;1.27;44.86;100833.31;25151;1312;3026113;-72
2022/03/16 08:21:59;;;;;;;3.00;2.00;;;;;;;1.46;43.78;100831.05;25145;1312;3026582;-71
2022/03/16 08:24:28;;;;;;;2.60;1.60;;;;;;;1.73;43.56;100827.89;25203;1312;3053283;-70
2022/03/16 08:26:58;;;;;;;6.10;1.70;;;;;;;1.92;42.89;100826.28;25157;1312;3026143;-70
2022/03/16 08:29:32;;;;;;;5.80;2.00;;;;;;;1.91;41.29;100829.04;25169;1312;3026882;-72
2022/03/16 08:32:03;;;;;;;6.30;1.80;;;;;;;1.84;41.06;100829.58;25147;1312;3027804;-72
2022/03/16 08:34:33;;;;;;;4.80;2.30;;;;;;;1.87;41.16;100830.27;25226;1311;3026882;-71
2022/03/16 08:37:03;;;;;;;3.60;1.90;;;;;;;1.88;41.31;100824.91;25192;1312;3029513;-68
2022/03/16 08:39:33;;;;;;;5.50;2.20;;;;;;;1.78;41.03;100823.38;25121;1313;3026749;-68
2022/03/16 08:42:04;;;;;;;6.90;2.30;;;;;;;1.96;41.02;100825.23;25212;1312;3026884;-67
2022/03/16 08:44:34;;;;;;;4.20;1.80;;;;;;;2.22;40.58;100824.08;25176;1312;3027342;-70
2022/03/16 08:47:03;;;;;;;4.50;2.00;;;;;;;2.15;39.18;100826.19;25121;1312;3026316;-69
2022/03/16 08:49:33;;;;;;;4.50;1.80;;;;;;;2.12;39.42;100824.48;25176;1312;3027332;-71
2022/03/16 08:52:06;;;;;;;9.10;2.40;;;;;;;2.03;40.06;100821.05;25186;1312;3026490;-69
2022/03/16 08:54:35;;;;;;;8.80;2.40;;;;;;;1.93;40.69;100821.09;25146;1312;3027023;-68
2022/03/16 08:57:10;;;;;;;5.70;2.10;;;;;;;1.97;40.61;100821.60;25210;1312;3028699;-69
2022/03/16 08:59:59;;;;;;;2.70;1.70;;;;;;;1.97;39.58;100817.44;25120;1312;3051662;-70
2022/03/16 09:02:30;;;;;;;3.20;1.70;;;;;;;1.97;38.14;100820.73;25128;1312;3026781;-68
2022/03/16 09:04:59;;;;;;;2.50;1.40;;;;;;;2.18;39.32;100819.44;25121;1312;3026330;-72
2022/03/16 09:07:30;;;;;;;6.80;2.30;;;;;;;2.29;38.16;100819.04;25121;1312;3030202;-74
2022/03/16 09:09:59;;;;;;;3.80;1.80;;;;;;;2.29;37.24;100816.11;25086;1312;3026096;-71
2022/03/16 09:12:33;;;;;;;3.70;1.90;;;;;;;2.33;38.06;100816.08;25179;1312;3057393;-68
2022/03/16 09:15:04;;;;;;;8.10;1.80;;;;;;;2.56;37.53;100813.36;25164;1312;3026607;-71
2022/03/16 09:17:34;;;;;;;3.90;1.70;;;;;;;2.82;37.21;100815.79;25153;1312;3026294;-71
2022/03/16 09:20:07;;;;;;;3.00;2.00;;;;;;;2.87;35.97;100818.34;25170;1312;3027102;-73
2022/03/16 09:22:37;;;;;;;5.40;1.40;;;;;;;2.97;35.09;100818.10;25172;1312;3028545;-71
2022/03/16 09:25:09;;;;;;;3.10;1.70;;;;;;;3.31;35.75;100814.69;25139;1312;3026829;-70
2022/03/16 09:27:38;;;;;;;3.10;1.50;;;;;;;3.62;34.97;100815.26;25162;1312;3026114;-71
2022/03/16 09:30:08;;;;;;;3.60;1.50;;;;;;;3.71;34.58;100809.11;25149;1312;3029623;-69
2022/03/16 09:32:39;;;;;;;4.70;1.40;;;;;;;3.32;34.63;100816.23;25181;1312;3026152;-69
2022/03/16 09:35:09;;;;;;;6.30;1.30;;;;;;;3.34;34.17;100812.77;25124;1312;3026767;-71
2022/03/16 09:37:40;;;;;;;3.20;1.60;;;;;;;3.07;34.53;100807.96;25101;1312;3027046;-69
2022/03/16 09:40:10;;;;;;;2.70;1.40;;;;;;;2.81;34.66;100816.65;25110;1312;3028682;-71
2022/03/16 09:42:39;;;;;;;3.70;1.60;;;;;;;2.78;35.36;100819.80;25109;1312;3026422;-71
2022/03/16 09:45:10;;;;;;;2.90;1.70;;;;;;;2.77;35.33;100822.56;25143;1312;3026553;-72
2022/03/16 09:47:40;;;;;;;6.40;1.70;;;;;;;2.80;34.81;100820.80;25123;1315;3027166;-68
2022/03/16 09:50:09;;;;;;;6.80;1.80;;;;;;;2.70;35.50;100820.71;25145;1315;3026451;-71
2022/03/16 09:52:39;;;;;;;7.00;1.80;;;;;;;2.82;35.50;100821.66;25181;1312;3030484;-70
2022/03/16 09:55:09;;;;;;;4.20;1.80;;;;;;;2.81;35.93;100816.31;25183;1312;3053566;-71
2022/03/16 09:57:38;;;;;;;3.10;1.80;;;;;;;2.67;35.45;100813.45;25193;1312;3029936;-71
2022/03/16 10:00:12;;;;;;;4.40;1.50;;;;;;;2.61;35.82;100818.87;25146;1311;3027198;-69
2022/03/16 10:02:41;;;;;;;3.10;1.40;;;;;;;2.66;35.26;100810.52;25124;1312;3048748;-72
2022/03/16 10:05:11;;;;;;;3.20;1.80;;;;;;;2.37;35.41;100813.46;25146;1312;3027078;-70
2022/03/16 10:07:40;;;;;;;2.50;1.50;;;;;;;2.38;36.39;100820.55;25158;1312;3028944;-69
2022/03/16 10:13:18;;;;;;;4.40;1.50;;;;;;;2.60;36.33;100814.36;25114;1313;3053515;-70
2022/03/16 10:15:49;;;;;;;4.90;1.70;;;;;;;2.65;36.65;100808.81;25175;1312;3053791;-71
2022/03/16 10:18:21;;;;;;;4.70;2.00;;;;;;;2.61;36.50;100813.16;25124;1312;3026251;-71
2022/03/16 10:20:52;;;;;;;7.10;2.20;;;;;;;2.56;36.83;100813.36;25131;1312;3026321;-69
2022/03/16 10:23:27;;;;;;;5.00;1.80;;;;;;;2.36;36.88;100809.15;25137;1312;3026772;-70
2022/03/16 10:26:00;;;;;;;8.70;2.00;;;;;;;2.24;36.74;100806.45;25193;1312;3054533;-68
2022/03/16 10:28:32;;;;;;;;;;;;;;;2.53;36.51;100802.65;25163;1312;3055494;-71
2022/03/16 10:31:02;;;;;;;6.50;2.00;;;;;;;2.62;36.18;100799.82;25140;1312;3026745;-70
2022/03/16 10:33:33;;;;;;;5.60;2.10;;;;;;;2.60;35.82;100794.46;25156;1312;3029030;-69
2022/03/16 10:36:04;;;;;;;5.30;1.90;;;;;;;2.95;35.63;100792.83;25184;1312;3029731;-69
2022/03/16 10:38:46;;;;;;;3.30;1.90;;;;;;;3.40;35.00;100793.14;25128;1312;3026323;-69
2022/03/16 10:46:58;;;;;;;7.60;2.20;;;;;;;3.04;35.19;100787.40;25156;1312;3054367;-72
2022/03/16 10:49:30;;;;;;;5.20;2.60;;;;;;;2.95;35.37;100783.48;25159;1312;3025779;-70
2022/03/16 10:52:02;;;;;;;8.20;3.30;;;;;;;2.60;36.04;100787.22;25137;1312;3026708;-69
2022/03/16 10:54:33;;;;;;;10.60;3.20;;;;;;;2.72;36.18;100786.45;25143;1312;3027102;-71
2022/03/16 10:57:04;;;;;;;5.70;3.00;;;;;;;2.72;35.85;100786.95;25180;1312;3027447;-69
2022/03/16 10:59:34;;;;;;;6.70;3.00;;;;;;;2.63;34.85;100782.86;25157;1313;3029592;-70
2022/03/16 11:02:05;;;;;;;6.80;2.90;;;;;;;2.70;35.13;100778.32;25218;1312;3027027;-72
2022/03/16 11:04:35;;;;;;;7.20;2.90;;;;;;;2.70;35.32;100777.28;25206;1312;3026312;-70
2022/03/16 11:07:05;;;;;;;4.10;2.20;;;;;;;2.86;35.21;100775.60;25183;1312;3028932;-70
2022/03/16 11:09:35;;;;;;;4.80;2.20;;;;;;;3.04;35.26;100770.77;25179;1312;3027882;-72
2022/03/16 11:14:53;;;;;;;3.90;1.80;;;;;;;3.11;35.25;100772.27;25123;1312;3053296;-69
2022/03/16 11:17:22;;;;;;;5.70;2.50;;;;;;;2.94;35.29;100768.61;25202;1312;3026434;-68
2022/03/16 11:19:53;;;;;;;3.50;2.00;;;;;;;2.73;36.00;100769.30;25104;1315;3052711;-68
2022/03/16 11:22:25;;;;;;;8.50;2.50;;;;;;;2.39;36.78;100769.17;25105;1315;3026021;-69
2022/03/16 11:25:02;;;;;;;4.70;2.20;;;;;;;2.50;36.77;100765.83;25163;1312;3030080;-69
2022/03/16 11:27:49;;;;;;;7.60;2.50;;;;;;;2.37;37.18;100767.13;25119;1312;3071033;-71
2022/03/16 11:30:25;;;;;;;6.70;2.40;;;;;;;2.32;37.10;100759.20;25169;1312;3049108;-69
2022/03/16 11:32:57;;;;;;;7.70;3.00;;;;;;;2.52;37.15;100763.22;25106;1312;3052235;-68
2022/03/16 11:35:33;;;;;;;6.00;2.30;;;;;;;2.86;36.71;100764.17;25201;1312;3026289;-72
2022/03/16 11:38:10;;;;;;;4.20;1.60;;;;;;;3.12;35.65;100752.70;25162;1312;3055342;-67